createdAt,value
2022-08-23T00:01:51.785Z,4.88
2022-08-23T00:04:34.894Z,5.15
2022-08-23T00:07:02.739Z,3.60
2022-08-23T00:09:30.149Z,4.00
2022-08-23T00:12:13.555Z,3.97
2022-08-23T00:14:46.135Z,3.87
2022-08-23T00:17:33.217Z,4.00
2022-08-23T00:20:02.575Z,1.77
2022-08-23T00:22:29.734Z,5.50
2022-08-23T00:24:56.756Z,6.32
2022-08-23T00:27:23.904Z,2.97
2022-08-23T00:29:53.617Z,5.03
2022-08-23T00:32:27.078Z,6.33
2022-08-23T00:34:54.658Z,4.38
2022-08-23T00:37:22.951Z,9.48
2022-08-23T00:39:49.974Z,3.90
2022-08-23T00:43:14.528Z,3.08
2022-08-23T00:46:10.388Z,6.27
2022-08-23T00:48:39.753Z,2.55
2022-08-23T00:51:18.810Z,3.10
2022-08-23T00:53:52.191Z,4.80
2022-08-23T00:56:22.918Z,2.88
2022-08-23T00:58:50.483Z,5.13
2022-08-23T01:01:18.363Z,4.53
2022-08-23T01:03:57.062Z,2.53
2022-08-23T01:06:41.845Z,4.23
2022-08-23T01:09:13.803Z,4.80
2022-08-23T01:11:48.687Z,3.43
2022-08-23T01:14:25.840Z,4.63
2022-08-23T01:17:00.875Z,2.87
2022-08-23T01:19:36.203Z,4.03
2022-08-23T01:22:37.361Z,4.38
2022-08-23T01:25:09.248Z,4.13
2022-08-23T01:27:46.414Z,5.60
2022-08-23T01:30:21.151Z,10.73
2022-08-23T01:32:53.193Z,8.60
2022-08-23T01:35:28.166Z,6.53
2022-08-23T01:37:55.555Z,4.82
2022-08-23T01:40:22.923Z,8.90
2022-08-23T01:42:50.062Z,7.57
2022-08-23T01:45:17.458Z,3.47
2022-08-23T01:47:44.872Z,5.75
2022-08-23T01:50:13.538Z,5.43
2022-08-23T01:52:46.809Z,6.35
2022-08-23T01:55:17.497Z,4.30
2022-08-23T01:57:46.988Z,3.80
2022-08-23T02:00:17.426Z,2.47
2022-08-23T02:02:47.027Z,3.77
2022-08-23T02:05:18.382Z,5.72
2022-08-23T02:07:47.581Z,3.93
2022-08-23T02:10:16.150Z,3.40
2022-08-23T02:12:43.082Z,5.80
2022-08-23T02:15:16.024Z,5.13
2022-08-23T02:17:46.981Z,4.57
2022-08-23T02:20:15.355Z,6.30
2022-08-23T02:22:42.565Z,4.27
2022-08-23T02:25:09.840Z,5.63
2022-08-23T02:27:36.777Z,5.53
2022-08-23T02:30:05.014Z,3.80
2022-08-23T02:32:32.360Z,3.40
2022-08-23T02:35:05.136Z,5.17
2022-08-23T02:37:35.521Z,3.23
2022-08-23T02:40:04.717Z,3.90
2022-08-23T02:42:32.060Z,3.70
2022-08-23T02:45:00.541Z,2.47
2022-08-23T02:47:27.688Z,5.07
2022-08-23T02:50:10.375Z,4.13
2022-08-23T02:52:37.450Z,5.37
2022-08-23T02:55:04.948Z,3.77
2022-08-23T02:57:32.096Z,3.57
2022-08-23T03:00:02.200Z,3.97
2022-08-23T03:02:30.525Z,2.60
2022-08-23T03:04:58.026Z,8.00
2022-08-23T03:07:25.145Z,5.23
2022-08-23T03:09:53.094Z,8.07
2022-08-23T03:12:20.441Z,19.63
2022-08-23T03:14:52.136Z,9.17
2022-08-23T03:17:20.520Z,4.20
2022-08-23T03:19:48.329Z,4.67
2022-08-23T03:22:15.758Z,3.63
2022-08-23T03:24:43.004Z,4.80
2022-08-23T03:27:11.181Z,4.30
2022-08-23T03:29:39.408Z,4.87
2022-08-23T03:32:07.525Z,6.18
2022-08-23T03:34:37.702Z,2.73
2022-08-23T03:37:07.012Z,4.33
2022-08-23T03:39:34.724Z,3.00
2022-08-23T03:42:02.531Z,12.50
2022-08-23T03:44:33.125Z,7.03
2022-08-23T03:47:00.483Z,8.98
2022-08-23T03:49:27.800Z,6.53
2022-08-23T03:51:57.078Z,12.47
2022-08-23T03:54:24.111Z,5.67
2022-08-23T03:57:06.189Z,3.50
2022-08-23T03:59:36.442Z,3.60
2022-08-23T04:02:07.771Z,7.03
2022-08-23T04:04:34.910Z,4.53
2022-08-23T04:07:31.459Z,4.53
2022-08-23T04:09:58.685Z,9.47
2022-08-23T04:12:30.945Z,2.47
2022-08-23T04:14:58.275Z,4.73
2022-08-23T04:17:25.765Z,4.77
2022-08-23T04:19:53.286Z,4.60
2022-08-23T04:22:21.229Z,3.03
2022-08-23T04:24:48.859Z,3.77
2022-08-23T04:27:17.194Z,3.70
2022-08-23T04:29:45.774Z,5.80
2022-08-23T04:32:12.987Z,5.20
2022-08-23T04:34:45.327Z,3.40
2022-08-23T04:37:15.611Z,5.47
2022-08-23T04:40:01.426Z,5.00
2022-08-23T04:42:35.773Z,5.17
2022-08-23T04:45:04.087Z,5.13
2022-08-23T04:47:32.936Z,5.03
2022-08-23T04:50:03.065Z,5.67
2022-08-23T04:52:31.228Z,4.00
2022-08-23T04:54:58.173Z,5.13
2022-08-23T04:57:46.429Z,7.60
2022-08-23T05:00:18.299Z,7.13
2022-08-23T05:02:54.610Z,4.95
2022-08-23T05:05:21.986Z,6.63
2022-08-23T05:07:49.311Z,7.13
2022-08-23T05:10:17.046Z,3.70
2022-08-23T05:12:48.749Z,6.35
2022-08-23T05:15:18.100Z,11.13
2022-08-23T05:17:48.423Z,4.25
2022-08-23T05:20:16.793Z,6.78
2022-08-23T05:22:44.446Z,3.03
2022-08-23T05:25:51.517Z,14.20
2022-08-23T05:28:34.602Z,6.32
2022-08-23T05:31:06.886Z,4.70
2022-08-23T05:33:46.284Z,4.70
2022-08-23T05:36:17.592Z,4.40
2022-08-23T05:38:47.175Z,4.35
2022-08-23T05:41:15.143Z,4.93
2022-08-23T05:43:42.563Z,3.85
2022-08-23T05:46:12.914Z,3.08
2022-08-23T05:48:47.158Z,3.00
2022-08-23T05:51:26.311Z,3.33
2022-08-23T05:53:56.937Z,5.10
2022-08-23T05:56:27.823Z,5.55
2022-08-23T05:59:00.054Z,6.63
2022-08-23T06:01:30.922Z,2.92
2022-08-23T06:04:05.851Z,5.40
2022-08-23T06:06:36.423Z,6.90
2022-08-23T06:09:08.086Z,4.60
2022-08-23T06:11:37.008Z,4.85
2022-08-23T06:14:09.301Z,4.60
2022-08-23T06:16:40.317Z,6.00
2022-08-23T06:19:08.736Z,5.22
2022-08-23T06:21:48.022Z,5.20
2022-08-23T06:24:20.896Z,4.85
2022-08-23T06:27:00.611Z,7.22
2022-08-23T06:29:28.331Z,5.22
2022-08-23T06:32:14.891Z,6.13
2022-08-23T06:35:33.333Z,6.50
2022-08-23T06:37:56.767Z,6.28
2022-08-23T06:40:42.550Z,7.50
2022-08-23T06:43:25.668Z,6.45
2022-08-23T06:46:11.893Z,11.15
2022-08-23T06:48:39.709Z,8.43
2022-08-23T06:51:14.644Z,6.50
2022-08-23T06:53:55.251Z,7.40
2022-08-23T06:56:44.234Z,5.70
2022-08-23T06:59:18.774Z,3.65
2022-08-23T07:02:07.786Z,4.78
2022-08-23T07:04:58.998Z,6.80
2022-08-23T07:07:53.108Z,5.15
2022-08-23T07:10:20.432Z,5.72
2022-08-23T07:12:49.688Z,7.53
2022-08-23T07:15:20.048Z,7.45
2022-08-23T07:17:47.968Z,9.98
2022-08-23T07:20:15.628Z,7.60
2022-08-23T07:22:44.642Z,9.63
2022-08-23T07:25:12.547Z,5.38
2022-08-23T07:27:40.608Z,7.53
2022-08-23T07:30:09.355Z,7.18
2022-08-23T07:32:40.528Z,8.77
2022-08-23T07:35:40.300Z,9.98
2022-08-23T07:38:08.230Z,8.60
2022-08-23T07:40:38.720Z,7.03
2022-08-23T07:43:06.975Z,9.63
2022-08-23T07:45:37.277Z,9.38
2022-08-23T07:48:05.467Z,6.18
2022-08-23T07:50:40.821Z,8.38
2022-08-23T07:53:32.037Z,10.38
2022-08-23T07:56:08.452Z,11.63
2022-08-23T07:59:01.907Z,11.32
2022-08-23T08:02:02.071Z,11.27
2022-08-23T08:04:29.934Z,11.63
2022-08-23T08:07:17.762Z,8.02
2022-08-23T08:09:47.310Z,9.18
2022-08-23T08:12:15.788Z,12.43
2022-08-23T08:14:43.707Z,12.25
2022-08-23T08:17:13.273Z,10.10
2022-08-23T08:19:58.983Z,10.90
2022-08-23T08:22:29.284Z,13.80
2022-08-23T08:25:06.472Z,14.15
2022-08-23T08:27:36.101Z,12.77
2022-08-23T08:30:05.351Z,19.45
2022-08-23T08:32:32.651Z,20.45
2022-08-23T08:35:00.031Z,15.25
2022-08-23T08:37:27.457Z,17.55
2022-08-23T08:39:55.070Z,15.23
2022-08-23T08:42:47.043Z,16.08
2022-08-23T08:45:23.449Z,15.30
2022-08-23T08:47:56.360Z,15.65
2022-08-23T08:50:37.627Z,12.90
2022-08-23T08:53:17.237Z,10.00
2022-08-23T08:56:23.354Z,13.18
2022-08-23T08:59:01.499Z,14.75
2022-08-23T09:01:35.042Z,12.82
2022-08-23T09:04:03.780Z,11.88
2022-08-23T09:06:50.021Z,13.13
2022-08-23T09:09:46.818Z,17.33
2022-08-23T09:12:45.216Z,12.82
2022-08-23T09:15:36.491Z,14.90
2022-08-23T09:18:12.160Z,14.93
2022-08-23T09:20:41.707Z,14.65
2022-08-23T09:23:17.187Z,16.17
2022-08-23T09:25:55.835Z,20.50
2022-08-23T09:28:33.873Z,14.07
2022-08-23T09:31:02.680Z,15.85
2022-08-23T09:33:45.904Z,16.48
2022-08-23T09:36:34.092Z,15.18
2022-08-23T09:39:06.897Z,19.65
2022-08-23T09:41:38.690Z,15.27
2022-08-23T09:44:09.573Z,16.02
2022-08-23T09:46:41.818Z,14.40
2022-08-23T09:49:26.064Z,17.42
2022-08-23T09:52:01.149Z,19.02
2022-08-23T09:54:33.456Z,16.50
2022-08-23T09:57:05.985Z,13.93
2022-08-23T09:59:37.985Z,14.13
2022-08-23T10:02:32.719Z,14.90
2022-08-23T10:05:15.347Z,18.38
2022-08-23T10:07:52.921Z,15.75
2022-08-23T10:10:23.866Z,15.93
2022-08-23T10:12:54.466Z,15.90
2022-08-23T10:15:36.176Z,14.82
2022-08-23T10:18:24.293Z,20.55
2022-08-23T10:21:24.164Z,14.15
2022-08-23T10:24:16.037Z,19.83
2022-08-23T10:27:44.823Z,19.60
2022-08-23T10:30:19.233Z,15.30
2022-08-23T10:33:34.023Z,19.48
2022-08-23T10:36:14.431Z,13.30
2022-08-23T10:38:49.368Z,15.00
2022-08-23T10:41:38.569Z,16.98
2022-08-23T10:44:22.999Z,16.25
2022-08-23T10:47:12.464Z,20.55
2022-08-23T10:49:42.069Z,13.48
2022-08-23T10:52:15.422Z,15.48
2022-08-23T10:55:06.578Z,15.07
2022-08-23T10:57:40.286Z,11.30
2022-08-23T11:00:16.059Z,15.75
2022-08-23T11:02:56.235Z,11.20
2022-08-23T11:05:35.255Z,14.10
2022-08-23T11:08:32.169Z,11.85
2022-08-23T11:11:00.605Z,11.45
2022-08-23T11:13:35.110Z,11.73
2022-08-23T11:16:25.368Z,13.05
2022-08-23T11:18:53.015Z,19.23
2022-08-23T11:21:33.399Z,10.07
2022-08-23T11:24:05.526Z,15.05
2022-08-23T11:26:37.846Z,12.75
2022-08-23T11:29:08.403Z,12.77
2022-08-23T11:32:00.865Z,13.00
2022-08-23T11:34:33.585Z,12.20
2022-08-23T11:37:46.597Z,14.07
2022-08-23T11:40:18.140Z,15.65
2022-08-23T11:42:52.070Z,15.02
2022-08-23T11:45:24.594Z,12.25
2022-08-23T11:48:15.024Z,11.35
2022-08-23T11:51:08.709Z,12.50
2022-08-23T11:53:50.857Z,10.85
2022-08-23T11:56:41.396Z,15.98
2022-08-23T11:59:30.048Z,11.38
2022-08-23T12:01:59.400Z,11.52
2022-08-23T12:04:53.717Z,16.48
2022-08-23T12:07:58.579Z,11.05
2022-08-23T12:10:46.378Z,8.77
2022-08-23T12:13:19.793Z,10.98
2022-08-23T12:16:29.050Z,11.93
2022-08-23T12:19:03.051Z,12.38
2022-08-23T12:21:33.582Z,9.90
2022-08-23T12:24:17.929Z,12.57
2022-08-23T12:26:53.087Z,13.05
2022-08-23T12:29:55.028Z,12.15
2022-08-23T12:32:49.862Z,11.18
2022-08-23T12:35:23.661Z,17.52
2022-08-23T12:38:08.308Z,11.77
2022-08-23T12:40:42.488Z,11.10
2022-08-23T12:43:22.635Z,15.85
2022-08-23T12:45:53.684Z,13.18
2022-08-23T12:48:25.306Z,14.38
2022-08-23T12:51:02.108Z,16.35
2022-08-23T12:53:33.477Z,11.32
2022-08-23T12:56:05.443Z,13.35
2022-08-23T12:58:37.051Z,13.30
2022-08-23T13:01:17.884Z,11.38
2022-08-23T13:03:48.827Z,16.10
2022-08-23T13:06:24.216Z,12.45
2022-08-23T13:08:57.963Z,13.38
2022-08-23T13:11:29.267Z,16.35
2022-08-23T13:13:56.735Z,13.65
2022-08-23T13:16:44.185Z,15.27
2022-08-23T13:19:17.346Z,12.52
2022-08-23T13:21:45.310Z,14.13
2022-08-23T13:24:38.113Z,15.85
2022-08-23T13:27:12.459Z,18.50
2022-08-23T13:30:09.116Z,15.90
2022-08-23T13:32:41.730Z,12.15
2022-08-23T13:35:31.168Z,13.40
2022-08-23T13:38:18.246Z,15.07
2022-08-23T13:40:54.291Z,17.90
2022-08-23T13:43:45.215Z,16.05
2022-08-23T13:46:20.943Z,13.63
2022-08-23T13:49:22.346Z,16.58
2022-08-23T13:54:51.348Z,14.65
2022-08-23T13:57:21.632Z,14.52
2022-08-23T13:59:55.046Z,14.13
2022-08-23T14:02:23.930Z,11.95
2022-08-23T14:04:51.992Z,16.02
2022-08-23T14:07:19.358Z,12.52
2022-08-23T14:09:48.656Z,12.65
2022-08-23T14:12:22.170Z,18.05
2022-08-23T14:14:50.601Z,13.98
2022-08-23T14:17:20.623Z,13.43
2022-08-23T14:20:32.801Z,12.77
2022-08-23T14:22:36.363Z,16.83
2022-08-23T14:25:04.615Z,33.42
2022-08-23T14:27:31.933Z,12.85
2022-08-23T14:29:59.642Z,12.27
2022-08-23T14:32:27.311Z,13.73
2022-08-23T14:34:54.321Z,14.40
2022-08-23T14:38:03.510Z,10.88
2022-08-23T14:40:10.432Z,13.10
2022-08-23T14:42:37.674Z,15.40
2022-08-23T14:45:05.898Z,12.27
2022-08-23T14:47:35.466Z,10.60
2022-08-23T14:50:05.960Z,11.43
2022-08-23T14:52:33.551Z,14.50
2022-08-23T14:55:00.788Z,13.45
2022-08-23T14:57:28.751Z,12.45
2022-08-23T14:59:55.992Z,15.25
2022-08-23T15:02:25.412Z,11.80
2022-08-23T15:04:54.638Z,11.18
2022-08-23T15:07:22.941Z,11.50
2022-08-23T15:09:55.309Z,14.10
2022-08-23T15:15:15.952Z,11.50
2022-08-23T15:17:59.781Z,11.85
2022-08-23T15:20:31.727Z,13.90
2022-08-23T15:23:00.411Z,14.10
2022-08-23T15:25:33.225Z,14.18
2022-08-23T15:28:02.183Z,12.50
2022-08-23T15:30:30.343Z,9.98
2022-08-23T15:33:01.270Z,9.00
2022-08-23T15:35:32.561Z,13.70
2022-08-23T15:37:59.701Z,13.35
2022-08-23T15:40:26.861Z,13.98
2022-08-23T15:42:54.364Z,15.70
2022-08-23T15:45:21.512Z,13.30
2022-08-23T15:47:51.783Z,13.57
2022-08-23T15:50:22.904Z,12.35
2022-08-23T15:52:50.363Z,10.82
2022-08-23T15:55:18.072Z,14.23
2022-08-23T15:57:48.308Z,12.85
2022-08-23T16:00:17.618Z,10.18
2022-08-23T16:03:18.541Z,13.55
2022-08-23T16:05:33.104Z,9.52
2022-08-23T16:08:00.138Z,15.82
2022-08-23T16:10:28.123Z,14.35
2022-08-23T16:12:56.034Z,10.48
2022-08-23T16:15:23.027Z,12.35
2022-08-23T16:17:50.096Z,10.00
2022-08-23T16:20:17.620Z,10.68
2022-08-23T16:22:44.698Z,10.98
2022-08-23T16:25:11.996Z,12.98
2022-08-23T16:27:39.380Z,12.73
2022-08-23T16:30:07.744Z,13.65
2022-08-23T16:32:37.065Z,14.13
2022-08-23T16:35:05.186Z,13.27
2022-08-23T16:37:32.349Z,12.18
2022-08-23T16:40:00.634Z,15.20
2022-08-23T16:42:27.859Z,13.50
2022-08-23T16:44:55.002Z,11.20
2022-08-23T16:47:22.091Z,14.93
2022-08-23T16:49:49.656Z,10.43
2022-08-23T16:52:17.429Z,12.02
2022-08-23T16:54:47.619Z,11.15
2022-08-23T16:57:17.661Z,10.90
2022-08-23T16:59:47.008Z,13.38
2022-08-23T17:02:34.003Z,18.40
2022-08-23T17:05:02.332Z,15.10
2022-08-23T17:07:30.325Z,14.88
2022-08-23T17:09:57.485Z,12.20
2022-08-23T17:12:26.161Z,12.65
2022-08-23T17:14:54.903Z,13.20
2022-08-23T17:17:21.974Z,16.98
2022-08-23T17:19:49.176Z,12.40
2022-08-23T17:22:16.776Z,11.55
2022-08-23T17:24:44.571Z,15.60
2022-08-23T17:27:14.000Z,12.18
2022-08-23T17:29:46.848Z,12.45
2022-08-23T17:32:14.032Z,13.57
2022-08-23T17:34:41.179Z,11.13
2022-08-23T17:37:21.021Z,10.30
2022-08-23T17:39:49.907Z,7.97
2022-08-23T17:42:17.685Z,9.77
2022-08-23T17:44:45.448Z,21.20
2022-08-23T17:47:16.306Z,10.65
2022-08-23T17:49:44.994Z,10.05
2022-08-23T17:52:12.474Z,9.68
2022-08-23T17:54:41.138Z,14.88
2022-08-23T17:57:09.474Z,8.85
2022-08-23T17:59:37.949Z,11.13
2022-08-23T18:02:05.376Z,11.38
2022-08-23T18:04:32.562Z,11.07
2022-08-23T18:07:00.342Z,18.33
2022-08-23T18:09:27.708Z,10.18
2022-08-23T18:11:55.332Z,20.73
2022-08-23T18:14:23.418Z,10.68
2022-08-23T18:16:51.495Z,17.38
2022-08-23T18:19:18.610Z,18.75
2022-08-23T18:21:46.730Z,14.00
2022-08-23T18:24:13.927Z,15.90
2022-08-23T18:27:00.034Z,11.43
2022-08-23T18:29:29.246Z,10.05
2022-08-23T18:31:56.293Z,10.80
2022-08-23T18:34:23.336Z,13.38
2022-08-23T18:36:51.287Z,15.00
2022-08-23T18:39:31.452Z,12.38
2022-08-23T18:42:04.867Z,12.82
2022-08-23T18:44:32.781Z,13.38
2022-08-23T18:47:02.140Z,11.57
2022-08-23T18:49:29.616Z,12.38
2022-08-23T18:51:56.715Z,13.77
2022-08-23T18:54:23.727Z,14.05
2022-08-23T18:56:51.481Z,15.13
2022-08-23T18:59:18.856Z,12.30
2022-08-23T19:01:47.629Z,14.95
2022-08-23T19:04:15.466Z,12.82
2022-08-23T19:06:42.702Z,13.02
2022-08-23T19:09:13.012Z,19.48
2022-08-23T19:11:42.510Z,11.80
2022-08-23T19:14:11.482Z,13.20
2022-08-23T19:16:42.632Z,16.20
2022-08-23T19:19:13.485Z,12.50
2022-08-23T19:21:40.662Z,13.85
2022-08-23T19:24:07.803Z,18.67
2022-08-23T19:26:36.295Z,11.82
2022-08-23T19:29:08.482Z,12.68
2022-08-23T19:31:43.140Z,12.35
2022-08-23T19:34:11.454Z,16.98
2022-08-23T19:36:49.275Z,12.15
2022-08-23T19:39:19.697Z,14.18
2022-08-23T19:41:48.403Z,12.25
2022-08-23T19:44:17.777Z,11.95
2022-08-23T19:46:46.336Z,16.73
2022-08-23T19:49:14.720Z,11.13
2022-08-23T19:51:43.626Z,10.50
2022-08-23T19:54:13.013Z,11.45
2022-08-23T19:56:49.544Z,11.95
2022-08-23T19:59:24.534Z,13.32
2022-08-23T20:01:55.643Z,12.63
2022-08-23T20:04:30.101Z,12.35
2022-08-23T20:06:58.858Z,13.32
2022-08-23T20:09:31.696Z,11.63
2022-08-23T20:11:59.470Z,19.50
2022-08-23T20:14:31.192Z,11.20
2022-08-23T20:16:59.461Z,12.63
2022-08-23T20:19:27.104Z,12.48
2022-08-23T20:22:16.241Z,9.40
2022-08-23T20:24:54.225Z,9.75
2022-08-23T20:27:25.388Z,9.73
2022-08-23T20:29:59.990Z,9.80
2022-08-23T20:32:28.357Z,10.07
2022-08-23T20:34:56.140Z,12.10
2022-08-23T20:37:23.603Z,8.63
2022-08-23T20:39:50.640Z,7.20
2022-08-23T20:42:18.228Z,8.48
2022-08-23T20:44:45.765Z,8.68
2022-08-23T20:47:13.322Z,10.65
2022-08-23T20:49:40.726Z,5.63
2022-08-23T20:52:08.495Z,7.57
2022-08-23T20:54:36.203Z,12.15
2022-08-23T20:57:03.591Z,10.48
2022-08-23T20:59:31.080Z,14.18
2022-08-23T21:01:59.209Z,11.00
2022-08-23T21:04:30.372Z,10.27
2022-08-23T21:06:58.799Z,11.65
2022-08-23T21:12:07.966Z,10.80
2022-08-23T21:14:35.155Z,11.52
2022-08-23T21:17:02.393Z,7.43
2022-08-23T21:19:30.206Z,9.32
2022-08-23T21:21:58.446Z,7.97
2022-08-23T21:24:26.397Z,8.43
2022-08-23T21:26:53.723Z,10.00
2022-08-23T21:29:21.242Z,8.05
2022-08-23T21:31:48.297Z,7.82
2022-08-23T21:34:15.451Z,10.90
2022-08-23T21:36:42.463Z,10.60
2022-08-23T21:39:09.342Z,10.25
2022-08-23T21:41:41.939Z,10.93
2022-08-23T21:44:13.138Z,7.57
2022-08-23T21:46:41.492Z,11.10
2022-08-23T21:49:08.983Z,9.63
2022-08-23T21:51:40.380Z,9.20
2022-08-23T21:54:11.641Z,7.90
2022-08-23T21:56:39.938Z,7.97
2022-08-23T21:59:09.570Z,11.35
2022-08-23T22:01:37.423Z,9.48
2022-08-23T22:04:07.989Z,6.95
2022-08-23T22:06:35.292Z,8.35
2022-08-23T22:09:04.392Z,7.75
2022-08-23T22:11:31.442Z,6.82
2022-08-23T22:13:58.377Z,13.07
2022-08-23T22:16:26.246Z,7.30
2022-08-23T22:18:53.764Z,7.10
2022-08-23T22:21:20.838Z,7.05
2022-08-23T22:23:47.931Z,8.25
2022-08-23T22:26:14.853Z,8.75
2022-08-23T22:28:44.592Z,9.02
2022-08-23T22:31:15.084Z,8.45
2022-08-23T22:33:43.324Z,12.27
2022-08-23T22:36:14.058Z,8.38
2022-08-23T22:38:41.293Z,6.22
2022-08-23T22:41:08.561Z,12.23
2022-08-23T22:43:35.875Z,11.32
2022-08-23T22:46:05.943Z,12.25
2022-08-23T22:48:37.228Z,8.93
2022-08-23T22:51:09.297Z,10.70
2022-08-23T22:53:38.159Z,6.85
2022-08-23T22:56:06.353Z,10.50
2022-08-23T22:58:33.524Z,6.95
2022-08-23T23:01:00.764Z,9.02
2022-08-23T23:03:34.664Z,12.30
2022-08-23T23:06:02.001Z,9.98
2022-08-23T23:08:29.014Z,8.05
2022-08-23T23:11:03.030Z,9.75
2022-08-23T23:13:31.517Z,11.25
2022-08-23T23:16:02.268Z,12.48
2022-08-23T23:18:29.530Z,11.82
2022-08-23T23:21:01.690Z,11.63
2022-08-23T23:23:30.157Z,11.30
2022-08-23T23:25:57.947Z,12.93
2022-08-23T23:28:25.450Z,7.57
2022-08-23T23:30:54.212Z,11.10
2022-08-23T23:33:21.879Z,11.38
2022-08-23T23:35:49.148Z,9.05
2022-08-23T23:38:16.685Z,8.88
2022-08-23T23:40:44.242Z,9.73
2022-08-23T23:43:13.176Z,11.40
2022-08-23T23:45:41.428Z,11.45
2022-08-23T23:48:09.558Z,7.57
2022-08-23T23:50:42.672Z,8.68
2022-08-23T23:53:12.629Z,7.82
2022-08-23T23:55:39.986Z,15.95
2022-08-23T23:58:07.351Z,9.32
